sensor_id;sensor_type;location;lat;lon;timestamp;P1;durP1;ratioP1;P2;durP2;ratioP2
6438;SDS011;3252;52.540;13.290;2024-02-14T00:00:21;1.73;;;1.13;;
6438;SDS011;3252;52.540;13.290;2024-02-14T00:02:25;1.77;;;1.30;;
6438;SDS011;3252;52.540;13.290;2024-02-14T00:04:27;2.33;;;1.30;;
6438;SDS011;3252;52.540;13.290;2024-02-14T00:06:29;2.70;;;1.50;;
6438;SDS011;3252;52.540;13.290;2024-02-14T00:08:36;2.43;;;1.47;;
6438;SDS011;3252;52.540;13.290;2024-02-14T00:10:38;2.47;;;1.50;;
6438;SDS011;3252;52.540;13.290;2024-02-14T00:12:40;2.17;;;1.43;;
6438;SDS011;3252;52.540;13.290;2024-02-14T00:14:43;1.83;;;1.30;;
6438;SDS011;3252;52.540;13.290;2024-02-14T00:16:45;1.73;;;1.30;;
6438;SDS011;3252;52.540;13.290;2024-02-14T00:18:47;1.83;;;1.30;;
6438;SDS011;3252;52.540;13.290;2024-02-14T00:20:50;1.83;;;1.33;;
6438;SDS011;3252;52.540;13.290;2024-02-14T00:22:51;1.80;;;1.50;;
6438;SDS011;3252;52.540;13.290;2024-02-14T00:24:53;1.70;;;1.30;;
6438;SDS011;3252;52.540;13.290;2024-02-14T00:26:55;1.90;;;1.23;;
6438;SDS011;3252;52.540;13.290;2024-02-14T00:28:57;1.73;;;1.30;;
6438;SDS011;3252;52.540;13.290;2024-02-14T00:31:00;1.93;;;1.40;;
6438;SDS011;3252;52.540;13.290;2024-02-14T00:33:20;1.40;;;1.20;;
6438;SDS011;3252;52.540;13.290;2024-02-14T00:35:22;1.70;;;1.30;;
6438;SDS011;3252;52.540;13.290;2024-02-14T00:37:24;1.77;;;1.30;;
6438;SDS011;3252;52.540;13.290;2024-02-14T00:39:26;1.73;;;1.27;;
6438;SDS011;3252;52.540;13.290;2024-02-14T00:41:28;1.30;;;1.20;;
6438;SDS011;3252;52.540;13.290;2024-02-14T00:43:30;2.93;;;1.40;;
6438;SDS011;3252;52.540;13.290;2024-02-14T00:45:32;1.50;;;1.23;;
6438;SDS011;3252;52.540;13.290;2024-02-14T00:47:35;2.50;;;1.40;;
6438;SDS011;3252;52.540;13.290;2024-02-14T00:49:38;2.50;;;1.40;;
6438;SDS011;3252;52.540;13.290;2024-02-14T00:51:40;1.43;;;1.10;;
6438;SDS011;3252;52.540;13.290;2024-02-14T00:53:41;1.93;;;1.33;;
6438;SDS011;3252;52.540;13.290;2024-02-14T00:55:43;1.90;;;1.20;;
6438;SDS011;3252;52.540;13.290;2024-02-14T00:57:45;1.40;;;1.20;;
6438;SDS011;3252;52.540;13.290;2024-02-14T00:59:48;1.53;;;1.20;;
6438;SDS011;3252;52.540;13.290;2024-02-14T01:01:50;1.60;;;1.30;;
6438;SDS011;3252;52.540;13.290;2024-02-14T01:03:52;1.87;;;1.20;;
6438;SDS011;3252;52.540;13.290;2024-02-14T01:05:55;1.67;;;1.10;;
6438;SDS011;3252;52.540;13.290;2024-02-14T01:07:57;1.60;;;1.20;;
6438;SDS011;3252;52.540;13.290;2024-02-14T01:09:59;1.30;;;1.20;;
6438;SDS011;3252;52.540;13.290;2024-02-14T01:12:03;1.80;;;1.20;;
6438;SDS011;3252;52.540;13.290;2024-02-14T01:14:05;1.90;;;1.40;;
6438;SDS011;3252;52.540;13.290;2024-02-14T01:16:07;2.23;;;1.30;;
6438;SDS011;3252;52.540;13.290;2024-02-14T01:18:08;1.87;;;1.10;;
6438;SDS011;3252;52.540;13.290;2024-02-14T01:20:11;1.93;;;1.40;;
6438;SDS011;3252;52.540;13.290;2024-02-14T01:22:14;1.90;;;1.30;;
6438;SDS011;3252;52.540;13.290;2024-02-14T01:24:32;1.93;;;1.30;;
6438;SDS011;3252;52.540;13.290;2024-02-14T01:26:34;1.37;;;1.00;;
6438;SDS011;3252;52.540;13.290;2024-02-14T01:28:35;1.53;;;1.20;;
6438;SDS011;3252;52.540;13.290;2024-02-14T01:30:38;1.53;;;1.20;;
6438;SDS011;3252;52.540;13.290;2024-02-14T01:32:41;1.60;;;1.20;;
6438;SDS011;3252;52.540;13.290;2024-02-14T01:34:43;1.63;;;1.20;;
6438;SDS011;3252;52.540;13.290;2024-02-14T01:36:45;1.37;;;1.10;;
6438;SDS011;3252;52.540;13.290;2024-02-14T01:38:49;1.33;;;1.10;;
6438;SDS011;3252;52.540;13.290;2024-02-14T01:40:51;1.90;;;1.30;;
6438;SDS011;3252;52.540;13.290;2024-02-14T01:42:53;1.57;;;1.13;;
6438;SDS011;3252;52.540;13.290;2024-02-14T01:44:55;1.50;;;1.20;;
6438;SDS011;3252;52.540;13.290;2024-02-14T01:46:58;1.20;;;1.10;;
6438;SDS011;3252;52.540;13.290;2024-02-14T01:49:00;1.53;;;1.13;;
6438;SDS011;3252;52.540;13.290;2024-02-14T01:51:03;1.20;;;1.10;;
6438;SDS011;3252;52.540;13.290;2024-02-14T01:53:08;1.20;;;1.10;;
6438;SDS011;3252;52.540;13.290;2024-02-14T01:55:12;1.00;;;0.93;;
6438;SDS011;3252;52.540;13.290;2024-02-14T01:57:14;1.40;;;1.07;;
6438;SDS011;3252;52.540;13.290;2024-02-14T01:59:16;1.90;;;1.30;;
6438;SDS011;3252;52.540;13.290;2024-02-14T02:01:19;1.43;;;1.20;;
6438;SDS011;3252;52.540;13.290;2024-02-14T02:03:22;1.13;;;1.03;;
6438;SDS011;3252;52.540;13.290;2024-02-14T02:05:24;1.40;;;1.20;;
6438;SDS011;3252;52.540;13.290;2024-02-14T02:07:26;1.20;;;1.00;;
6438;SDS011;3252;52.540;13.290;2024-02-14T02:09:28;2.00;;;1.30;;
6438;SDS011;3252;52.540;13.290;2024-02-14T02:11:33;1.37;;;1.27;;
6438;SDS011;3252;52.540;13.290;2024-02-14T02:14:04;1.70;;;1.30;;
6438;SDS011;3252;52.540;13.290;2024-02-14T02:16:26;1.53;;;1.00;;
6438;SDS011;3252;52.540;13.290;2024-02-14T02:18:48;1.37;;;1.10;;
6438;SDS011;3252;52.540;13.290;2024-02-14T02:21:10;1.80;;;1.27;;
6438;SDS011;3252;52.540;13.290;2024-02-14T02:23:15;1.10;;;1.00;;
6438;SDS011;3252;52.540;13.290;2024-02-14T02:25:19;1.20;;;1.00;;
6438;SDS011;3252;52.540;13.290;2024-02-14T02:27:35;0.90;;;0.87;;
6438;SDS011;3252;52.540;13.290;2024-02-14T02:29:57;1.33;;;1.00;;
6438;SDS011;3252;52.540;13.290;2024-02-14T02:32:01;1.17;;;1.07;;
6438;SDS011;3252;52.540;13.290;2024-02-14T02:34:05;1.13;;;1.03;;
6438;SDS011;3252;52.540;13.290;2024-02-14T02:36:11;0.80;;;0.80;;
6438;SDS011;3252;52.540;13.290;2024-02-14T02:38:33;1.40;;;1.10;;
6438;SDS011;3252;52.540;13.290;2024-02-14T02:40:56;1.40;;;1.20;;
6438;SDS011;3252;52.540;13.290;2024-02-14T02:43:18;2.10;;;1.10;;
6438;SDS011;3252;52.540;13.290;2024-02-14T02:45:40;1.63;;;1.10;;
6438;SDS011;3252;52.540;13.290;2024-02-14T02:48:04;1.63;;;1.17;;
6438;SDS011;3252;52.540;13.290;2024-02-14T02:50:27;1.57;;;1.10;;
6438;SDS011;3252;52.540;13.290;2024-02-14T02:52:51;1.60;;;1.20;;
6438;SDS011;3252;52.540;13.290;2024-02-14T02:55:14;2.00;;;1.07;;
6438;SDS011;3252;52.540;13.290;2024-02-14T02:57:21;1.10;;;1.00;;
6438;SDS011;3252;52.540;13.290;2024-02-14T02:59:23;1.10;;;0.97;;
6438;SDS011;3252;52.540;13.290;2024-02-14T03:01:25;1.30;;;1.00;;
6438;SDS011;3252;52.540;13.290;2024-02-14T03:03:51;1.63;;;1.10;;
6438;SDS011;3252;52.540;13.290;2024-02-14T03:06:13;1.53;;;1.00;;
6438;SDS011;3252;52.540;13.290;2024-02-14T03:08:34;1.00;;;0.90;;
6438;SDS011;3252;52.540;13.290;2024-02-14T03:10:57;1.10;;;1.00;;
6438;SDS011;3252;52.540;13.290;2024-02-14T03:13:23;1.30;;;1.20;;
6438;SDS011;3252;52.540;13.290;2024-02-14T03:15:44;1.30;;;1.20;;
6438;SDS011;3252;52.540;13.290;2024-02-14T03:17:48;1.47;;;1.00;;
6438;SDS011;3252;52.540;13.290;2024-02-14T03:19:50;1.33;;;1.20;;
6438;SDS011;3252;52.540;13.290;2024-02-14T03:21:53;1.47;;;1.10;;
6438;SDS011;3252;52.540;13.290;2024-02-14T03:23:55;1.20;;;1.10;;
6438;SDS011;3252;52.540;13.290;2024-02-14T03:25:59;1.10;;;1.00;;
6438;SDS011;3252;52.540;13.290;2024-02-14T03:28:01;1.10;;;0.90;;
6438;SDS011;3252;52.540;13.290;2024-02-14T03:30:09;1.20;;;1.10;;
6438;SDS011;3252;52.540;13.290;2024-02-14T03:32:13;1.10;;;1.00;;
6438;SDS011;3252;52.540;13.290;2024-02-14T03:34:15;1.10;;;1.00;;
6438;SDS011;3252;52.540;13.290;2024-02-14T03:36:16;1.13;;;1.03;;
6438;SDS011;3252;52.540;13.290;2024-02-14T03:38:24;1.50;;;0.97;;
6438;SDS011;3252;52.540;13.290;2024-02-14T03:40:25;1.03;;;0.90;;
6438;SDS011;3252;52.540;13.290;2024-02-14T03:42:31;1.83;;;1.07;;
6438;SDS011;3252;52.540;13.290;2024-02-14T03:44:34;1.00;;;0.90;;
6438;SDS011;3252;52.540;13.290;2024-02-14T03:46:38;1.17;;;0.93;;
6438;SDS011;3252;52.540;13.290;2024-02-14T03:48:40;1.23;;;1.10;;
6438;SDS011;3252;52.540;13.290;2024-02-14T03:50:45;1.10;;;0.93;;
6438;SDS011;3252;52.540;13.290;2024-02-14T03:52:47;1.20;;;0.90;;
6438;SDS011;3252;52.540;13.290;2024-02-14T03:54:49;1.30;;;1.07;;
6438;SDS011;3252;52.540;13.290;2024-02-14T03:56:51;1.23;;;1.07;;
6438;SDS011;3252;52.540;13.290;2024-02-14T03:58:54;1.20;;;1.10;;
6438;SDS011;3252;52.540;13.290;2024-02-14T04:00:57;1.07;;;0.90;;
6438;SDS011;3252;52.540;13.290;2024-02-14T04:02:59;1.43;;;1.00;;
6438;SDS011;3252;52.540;13.290;2024-02-14T04:05:02;1.50;;;1.23;;
6438;SDS011;3252;52.540;13.290;2024-02-14T04:07:07;1.10;;;0.87;;
6438;SDS011;3252;52.540;13.290;2024-02-14T04:09:09;1.10;;;1.00;;
6438;SDS011;3252;52.540;13.290;2024-02-14T04:11:11;1.00;;;0.90;;
6438;SDS011;3252;52.540;13.290;2024-02-14T04:13:14;1.20;;;1.00;;
6438;SDS011;3252;52.540;13.290;2024-02-14T04:15:17;1.00;;;0.90;;
6438;SDS011;3252;52.540;13.290;2024-02-14T04:17:24;1.17;;;0.90;;
6438;SDS011;3252;52.540;13.290;2024-02-14T04:19:26;0.87;;;0.87;;
6438;SDS011;3252;52.540;13.290;2024-02-14T04:21:29;1.33;;;0.80;;
6438;SDS011;3252;52.540;13.290;2024-02-14T04:23:32;0.90;;;0.90;;
6438;SDS011;3252;52.540;13.290;2024-02-14T04:25:36;1.10;;;0.80;;
6438;SDS011;3252;52.540;13.290;2024-02-14T04:27:39;1.13;;;1.00;;
6438;SDS011;3252;52.540;13.290;2024-02-14T04:29:40;1.10;;;0.90;;
6438;SDS011;3252;52.540;13.290;2024-02-14T04:31:48;1.13;;;0.87;;
6438;SDS011;3252;52.540;13.290;2024-02-14T04:33:50;1.17;;;0.90;;
6438;SDS011;3252;52.540;13.290;2024-02-14T04:35:54;1.10;;;0.70;;
6438;SDS011;3252;52.540;13.290;2024-02-14T04:37:56;1.10;;;0.90;;
6438;SDS011;3252;52.540;13.290;2024-02-14T04:39:58;0.77;;;0.70;;
6438;SDS011;3252;52.540;13.290;2024-02-14T04:42:00;1.13;;;0.80;;
6438;SDS011;3252;52.540;13.290;2024-02-14T04:44:03;0.80;;;0.80;;
6438;SDS011;3252;52.540;13.290;2024-02-14T04:46:06;1.03;;;0.93;;
6438;SDS011;3252;52.540;13.290;2024-02-14T04:48:10;1.20;;;0.90;;
6438;SDS011;3252;52.540;13.290;2024-02-14T04:50:12;0.90;;;0.70;;
6438;SDS011;3252;52.540;13.290;2024-02-14T04:52:14;1.00;;;0.90;;
6438;SDS011;3252;52.540;13.290;2024-02-14T04:54:16;0.80;;;0.70;;
6438;SDS011;3252;52.540;13.290;2024-02-14T04:56:18;1.23;;;0.70;;
6438;SDS011;3252;52.540;13.290;2024-02-14T04:58:20;1.00;;;0.90;;
6438;SDS011;3252;52.540;13.290;2024-02-14T05:00:22;2.10;;;1.07;;
6438;SDS011;3252;52.540;13.290;2024-02-14T05:02:24;0.90;;;0.80;;
6438;SDS011;3252;52.540;13.290;2024-02-14T05:04:28;0.80;;;0.80;;
6438;SDS011;3252;52.540;13.290;2024-02-14T05:06:31;1.10;;;0.87;;
6438;SDS011;3252;52.540;13.290;2024-02-14T05:08:34;0.80;;;0.80;;
6438;SDS011;3252;52.540;13.290;2024-02-14T05:10:35;0.97;;;0.80;;
6438;SDS011;3252;52.540;13.290;2024-02-14T05:12:37;1.00;;;0.83;;
6438;SDS011;3252;52.540;13.290;2024-02-14T05:14:40;0.90;;;0.80;;
6438;SDS011;3252;52.540;13.290;2024-02-14T05:16:42;1.10;;;1.00;;
6438;SDS011;3252;52.540;13.290;2024-02-14T05:18:44;1.03;;;0.80;;
6438;SDS011;3252;52.540;13.290;2024-02-14T05:20:48;1.00;;;0.80;;
6438;SDS011;3252;52.540;13.290;2024-02-14T05:22:51;0.77;;;0.70;;
6438;SDS011;3252;52.540;13.290;2024-02-14T05:24:53;1.10;;;0.77;;
6438;SDS011;3252;52.540;13.290;2024-02-14T05:26:55;0.97;;;0.87;;
6438;SDS011;3252;52.540;13.290;2024-02-14T05:28:58;0.80;;;0.80;;
6438;SDS011;3252;52.540;13.290;2024-02-14T05:31:00;0.60;;;0.60;;
6438;SDS011;3252;52.540;13.290;2024-02-14T05:33:10;1.00;;;0.80;;
6438;SDS011;3252;52.540;13.290;2024-02-14T05:35:12;1.00;;;0.70;;
6438;SDS011;3252;52.540;13.290;2024-02-14T05:37:15;0.97;;;0.87;;
6438;SDS011;3252;52.540;13.290;2024-02-14T05:39:16;1.80;;;1.00;;
6438;SDS011;3252;52.540;13.290;2024-02-14T05:41:19;0.80;;;0.80;;
6438;SDS011;3252;52.540;13.290;2024-02-14T05:43:21;0.80;;;0.80;;
6438;SDS011;3252;52.540;13.290;2024-02-14T05:45:24;0.70;;;0.70;;
6438;SDS011;3252;52.540;13.290;2024-02-14T05:47:27;1.83;;;1.10;;
6438;SDS011;3252;52.540;13.290;2024-02-14T05:49:30;1.40;;;1.00;;
6438;SDS011;3252;52.540;13.290;2024-02-14T05:51:32;2.77;;;0.90;;
6438;SDS011;3252;52.540;13.290;2024-02-14T05:53:35;3.40;;;1.47;;
6438;SDS011;3252;52.540;13.290;2024-02-14T05:55:37;4.03;;;1.80;;
6438;SDS011;3252;52.540;13.290;2024-02-14T05:57:40;7.23;;;2.77;;
6438;SDS011;3252;52.540;13.290;2024-02-14T05:59:42;13.27;;;3.40;;
6438;SDS011;3252;52.540;13.290;2024-02-14T06:01:44;7.57;;;3.10;;
6438;SDS011;3252;52.540;13.290;2024-02-14T06:03:46;8.77;;;2.90;;
6438;SDS011;3252;52.540;13.290;2024-02-14T06:05:48;9.47;;;3.20;;
6438;SDS011;3252;52.540;13.290;2024-02-14T06:07:50;11.00;;;3.40;;
6438;SDS011;3252;52.540;13.290;2024-02-14T06:09:54;10.50;;;3.57;;
6438;SDS011;3252;52.540;13.290;2024-02-14T06:11:56;10.87;;;3.57;;
6438;SDS011;3252;52.540;13.290;2024-02-14T06:13:58;11.50;;;3.87;;
6438;SDS011;3252;52.540;13.290;2024-02-14T06:16:00;11.57;;;3.93;;
6438;SDS011;3252;52.540;13.290;2024-02-14T06:18:02;11.77;;;4.30;;
6438;SDS011;3252;52.540;13.290;2024-02-14T06:20:05;10.30;;;3.73;;
6438;SDS011;3252;52.540;13.290;2024-02-14T06:22:11;9.70;;;3.60;;
6438;SDS011;3252;52.540;13.290;2024-02-14T06:24:13;14.57;;;3.93;;
6438;SDS011;3252;52.540;13.290;2024-02-14T06:26:16;11.47;;;3.93;;
6438;SDS011;3252;52.540;13.290;2024-02-14T06:28:19;12.17;;;4.53;;
6438;SDS011;3252;52.540;13.290;2024-02-14T06:30:21;15.07;;;5.00;;
6438;SDS011;3252;52.540;13.290;2024-02-14T06:32:22;17.17;;;4.87;;
6438;SDS011;3252;52.540;13.290;2024-02-14T06:34:24;13.67;;;4.87;;
6438;SDS011;3252;52.540;13.290;2024-02-14T06:36:28;13.73;;;5.07;;
6438;SDS011;3252;52.540;13.290;2024-02-14T06:38:30;16.40;;;5.63;;
6438;SDS011;3252;52.540;13.290;2024-02-14T06:40:33;15.20;;;5.40;;
6438;SDS011;3252;52.540;13.290;2024-02-14T06:42:36;13.23;;;5.30;;
6438;SDS011;3252;52.540;13.290;2024-02-14T06:44:38;16.00;;;5.53;;
6438;SDS011;3252;52.540;13.290;2024-02-14T06:46:40;12.47;;;4.90;;
6438;SDS011;3252;52.540;13.290;2024-02-14T06:48:43;12.17;;;4.93;;
6438;SDS011;3252;52.540;13.290;2024-02-14T06:50:45;15.80;;;5.03;;
6438;SDS011;3252;52.540;13.290;2024-02-14T06:52:47;17.27;;;5.23;;
6438;SDS011;3252;52.540;13.290;2024-02-14T06:54:48;16.73;;;5.77;;
6438;SDS011;3252;52.540;13.290;2024-02-14T06:56:50;14.53;;;4.90;;
6438;SDS011;3252;52.540;13.290;2024-02-14T06:58:54;17.27;;;5.47;;
6438;SDS011;3252;52.540;13.290;2024-02-14T07:01:00;14.10;;;5.07;;
6438;SDS011;3252;52.540;13.290;2024-02-14T07:03:02;17.03;;;5.03;;
6438;SDS011;3252;52.540;13.290;2024-02-14T07:05:05;12.73;;;4.87;;
6438;SDS011;3252;52.540;13.290;2024-02-14T07:07:08;12.07;;;4.67;;
6438;SDS011;3252;52.540;13.290;2024-02-14T07:09:10;11.00;;;4.37;;
6438;SDS011;3252;52.540;13.290;2024-02-14T07:11:12;11.43;;;4.70;;
6438;SDS011;3252;52.540;13.290;2024-02-14T07:13:15;17.50;;;4.90;;
6438;SDS011;3252;52.540;13.290;2024-02-14T07:15:19;12.87;;;5.40;;
6438;SDS011;3252;52.540;13.290;2024-02-14T07:17:21;11.17;;;4.23;;
6438;SDS011;3252;52.540;13.290;2024-02-14T07:19:23;14.40;;;4.63;;
6438;SDS011;3252;52.540;13.290;2024-02-14T07:21:26;15.47;;;5.20;;
6438;SDS011;3252;52.540;13.290;2024-02-14T07:23:29;10.70;;;4.68;;
6438;SDS011;3252;52.540;13.290;2024-02-14T07:25:31;12.17;;;4.87;;
6438;SDS011;3252;52.540;13.290;2024-02-14T07:27:33;10.47;;;4.60;;
6438;SDS011;3252;52.540;13.290;2024-02-14T07:29:36;10.07;;;4.57;;
6438;SDS011;3252;52.540;13.290;2024-02-14T07:31:39;11.30;;;4.60;;
6438;SDS011;3252;52.540;13.290;2024-02-14T07:33:41;13.53;;;4.87;;
6438;SDS011;3252;52.540;13.290;2024-02-14T07:35:44;12.03;;;3.87;;
6438;SDS011;3252;52.540;13.290;2024-02-14T07:37:47;1999.90;;;999.90;;
6438;SDS011;3252;52.540;13.290;2024-02-14T07:39:49;256.15;;;162.98;;
6438;SDS011;3252;52.540;13.290;2024-02-14T07:41:52;106.77;;;57.93;;
6438;SDS011;3252;52.540;13.290;2024-02-14T07:43:54;1999.90;;;999.90;;
6438;SDS011;3252;52.540;13.290;2024-02-14T07:45:57;337.70;;;263.17;;
6438;SDS011;3252;52.540;13.290;2024-02-14T07:48:00;173.30;;;119.13;;
6438;SDS011;3252;52.540;13.290;2024-02-14T07:50:04;91.10;;;51.13;;
6438;SDS011;3252;52.540;13.290;2024-02-14T07:52:05;56.43;;;31.83;;
6438;SDS011;3252;52.540;13.290;2024-02-14T07:54:07;143.37;;;75.73;;
6438;SDS011;3252;52.540;13.290;2024-02-14T07:56:10;223.80;;;130.30;;
6438;SDS011;3252;52.540;13.290;2024-02-14T07:58:11;199.43;;;114.53;;
6438;SDS011;3252;52.540;13.290;2024-02-14T08:00:13;460.77;;;312.67;;
6438;SDS011;3252;52.540;13.290;2024-02-14T08:02:22;373.57;;;223.23;;
6438;SDS011;3252;52.540;13.290;2024-02-14T08:04:26;295.57;;;156.70;;
6438;SDS011;3252;52.540;13.290;2024-02-14T08:06:28;170.87;;;77.50;;
6438;SDS011;3252;52.540;13.290;2024-02-14T08:08:30;83.73;;;34.13;;
6438;SDS011;3252;52.540;13.290;2024-02-14T08:10:32;170.67;;;97.57;;
6438;SDS011;3252;52.540;13.290;2024-02-14T08:12:34;680.30;;;544.90;;
6438;SDS011;3252;52.540;13.290;2024-02-14T08:14:37;905.87;;;697.27;;
6438;SDS011;3252;52.540;13.290;2024-02-14T08:16:39;917.70;;;693.10;;
6438;SDS011;3252;52.540;13.290;2024-02-14T08:18:41;793.43;;;596.00;;
6438;SDS011;3252;52.540;13.290;2024-02-14T08:20:45;680.80;;;485.63;;
6438;SDS011;3252;52.540;13.290;2024-02-14T08:22:49;616.13;;;407.03;;
6438;SDS011;3252;52.540;13.290;2024-02-14T08:24:52;483.07;;;286.27;;
6438;SDS011;3252;52.540;13.290;2024-02-14T08:26:56;358.97;;;178.37;;
6438;SDS011;3252;52.540;13.290;2024-02-14T08:28:58;254.10;;;108.47;;
6438;SDS011;3252;52.540;13.290;2024-02-14T08:30:59;143.80;;;54.43;;
6438;SDS011;3252;52.540;13.290;2024-02-14T08:33:02;85.50;;;29.47;;
6438;SDS011;3252;52.540;13.290;2024-02-14T08:35:04;41.60;;;13.73;;
6438;SDS011;3252;52.540;13.290;2024-02-14T08:37:09;20.33;;;7.25;;
6438;SDS011;3252;52.540;13.290;2024-02-14T08:39:12;15.63;;;5.70;;
6438;SDS011;3252;52.540;13.290;2024-02-14T08:41:14;11.90;;;4.65;;
6438;SDS011;3252;52.540;13.290;2024-02-14T08:43:16;8.43;;;4.10;;
6438;SDS011;3252;52.540;13.290;2024-02-14T08:45:18;7.15;;;3.42;;
6438;SDS011;3252;52.540;13.290;2024-02-14T08:47:20;7.95;;;3.78;;
6438;SDS011;3252;52.540;13.290;2024-02-14T08:49:22;1210.45;;;856.05;;
6438;SDS011;3252;52.540;13.290;2024-02-14T08:51:24;510.02;;;375.85;;
6438;SDS011;3252;52.540;13.290;2024-02-14T08:53:28;452.92;;;299.90;;
6438;SDS011;3252;52.540;13.290;2024-02-14T08:55:30;868.17;;;648.27;;
6438;SDS011;3252;52.540;13.290;2024-02-14T08:57:33;1184.63;;;821.20;;
6438;SDS011;3252;52.540;13.290;2024-02-14T08:59:35;1557.13;;;953.90;;
6438;SDS011;3252;52.540;13.290;2024-02-14T09:01:37;1806.40;;;999.90;;
6438;SDS011;3252;52.540;13.290;2024-02-14T09:03:40;1834.90;;;999.90;;
6438;SDS011;3252;52.540;13.290;2024-02-14T09:05:43;1731.00;;;984.38;;
6438;SDS011;3252;52.540;13.290;2024-02-14T09:07:46;1683.90;;;966.65;;
6438;SDS011;3252;52.540;13.290;2024-02-14T09:09:50;1546.10;;;906.03;;
6438;SDS011;3252;52.540;13.290;2024-02-14T09:11:52;1384.45;;;837.10;;
6438;SDS011;3252;52.540;13.290;2024-02-14T09:13:55;1299.37;;;790.80;;
6438;SDS011;3252;52.540;13.290;2024-02-14T09:16:02;1187.87;;;729.03;;
6438;SDS011;3252;52.540;13.290;2024-02-14T09:18:06;1056.40;;;657.50;;
6438;SDS011;3252;52.540;13.290;2024-02-14T09:20:08;960.45;;;582.80;;
6438;SDS011;3252;52.540;13.290;2024-02-14T09:22:14;845.47;;;490.87;;
6438;SDS011;3252;52.540;13.290;2024-02-14T09:24:21;722.58;;;397.73;;
6438;SDS011;3252;52.540;13.290;2024-02-14T09:26:24;618.95;;;317.25;;
6438;SDS011;3252;52.540;13.290;2024-02-14T09:28:27;494.77;;;223.30;;
6438;SDS011;3252;52.540;13.290;2024-02-14T09:30:29;404.20;;;154.25;;
6438;SDS011;3252;52.540;13.290;2024-02-14T09:32:31;289.02;;;105.30;;
6438;SDS011;3252;52.540;13.290;2024-02-14T09:34:32;224.63;;;76.80;;
6438;SDS011;3252;52.540;13.290;2024-02-14T09:36:34;128.57;;;41.42;;
6438;SDS011;3252;52.540;13.290;2024-02-14T09:38:36;66.33;;;22.83;;
6438;SDS011;3252;52.540;13.290;2024-02-14T09:40:39;43.53;;;13.45;;
6438;SDS011;3252;52.540;13.290;2024-02-14T09:42:44;19.52;;;6.85;;
6438;SDS011;3252;52.540;13.290;2024-02-14T09:44:52;12.95;;;4.80;;
6438;SDS011;3252;52.540;13.290;2024-02-14T09:46:59;9.20;;;4.05;;
6438;SDS011;3252;52.540;13.290;2024-02-14T09:49:02;9.43;;;3.30;;
6438;SDS011;3252;52.540;13.290;2024-02-14T09:51:04;11.63;;;3.20;;
6438;SDS011;3252;52.540;13.290;2024-02-14T09:53:08;7.28;;;3.00;;
6438;SDS011;3252;52.540;13.290;2024-02-14T09:55:12;7.70;;;3.80;;
6438;SDS011;3252;52.540;13.290;2024-02-14T09:57:15;336.60;;;251.45;;
6438;SDS011;3252;52.540;13.290;2024-02-14T09:59:44;960.38;;;755.70;;
6438;SDS011;3252;52.540;13.290;2024-02-14T10:01:47;1359.57;;;915.30;;
6438;SDS011;3252;52.540;13.290;2024-02-14T10:03:51;1581.80;;;987.77;;
6438;SDS011;3252;52.540;13.290;2024-02-14T10:05:53;1423.68;;;923.70;;
6438;SDS011;3252;52.540;13.290;2024-02-14T10:07:56;1426.57;;;925.00;;
6438;SDS011;3252;52.540;13.290;2024-02-14T10:10:05;1298.30;;;858.35;;
6438;SDS011;3252;52.540;13.290;2024-02-14T10:12:07;1193.40;;;800.40;;
6438;SDS011;3252;52.540;13.290;2024-02-14T10:14:10;985.35;;;684.97;;
6438;SDS011;3252;52.540;13.290;2024-02-14T10:16:14;847.50;;;584.45;;
6438;SDS011;3252;52.540;13.290;2024-02-14T10:18:18;726.70;;;484.90;;
6438;SDS011;3252;52.540;13.290;2024-02-14T10:20:20;643.30;;;397.73;;
6438;SDS011;3252;52.540;13.290;2024-02-14T10:22:23;494.80;;;274.33;;
6438;SDS011;3252;52.540;13.290;2024-02-14T10:24:25;374.60;;;176.45;;
6438;SDS011;3252;52.540;13.290;2024-02-14T10:26:28;252.90;;;111.65;;
6438;SDS011;3252;52.540;13.290;2024-02-14T10:28:30;156.35;;;62.35;;
6438;SDS011;3252;52.540;13.290;2024-02-14T10:30:35;96.15;;;36.63;;
6438;SDS011;3252;52.540;13.290;2024-02-14T10:32:40;49.35;;;18.45;;
6438;SDS011;3252;52.540;13.290;2024-02-14T10:34:41;24.98;;;8.13;;
6438;SDS011;3252;52.540;13.290;2024-02-14T10:36:46;14.98;;;5.00;;
6438;SDS011;3252;52.540;13.290;2024-02-14T10:38:51;7.95;;;3.55;;
6438;SDS011;3252;52.540;13.290;2024-02-14T10:40:55;6.07;;;2.80;;
6438;SDS011;3252;52.540;13.290;2024-02-14T10:43:00;5.20;;;2.70;;
6438;SDS011;3252;52.540;13.290;2024-02-14T10:45:04;6.93;;;2.50;;
6438;SDS011;3252;52.540;13.290;2024-02-14T10:47:13;6.05;;;2.30;;
6438;SDS011;3252;52.540;13.290;2024-02-14T10:49:21;3.67;;;2.30;;
6438;SDS011;3252;52.540;13.290;2024-02-14T10:51:27;4.82;;;2.10;;
6438;SDS011;3252;52.540;13.290;2024-02-14T10:53:33;7.63;;;2.30;;
6438;SDS011;3252;52.540;13.290;2024-02-14T10:55:36;3.55;;;2.08;;
6438;SDS011;3252;52.540;13.290;2024-02-14T10:57:41;5.32;;;2.08;;
6438;SDS011;3252;52.540;13.290;2024-02-14T10:59:45;3.78;;;2.08;;
6438;SDS011;3252;52.540;13.290;2024-02-14T11:01:48;4.05;;;1.80;;
6438;SDS011;3252;52.540;13.290;2024-02-14T11:03:51;141.70;;;42.53;;
6438;SDS011;3252;52.540;13.290;2024-02-14T11:06:00;626.70;;;427.95;;
6438;SDS011;3252;52.540;13.290;2024-02-14T11:08:07;258.55;;;136.93;;
6438;SDS011;3252;52.540;13.290;2024-02-14T11:10:12;475.65;;;322.00;;
6438;SDS011;3252;52.540;13.290;2024-02-14T11:12:15;867.42;;;655.63;;
6438;SDS011;3252;52.540;13.290;2024-02-14T11:14:18;1098.80;;;786.42;;
6438;SDS011;3252;52.540;13.290;2024-02-14T11:16:22;1145.28;;;808.35;;
6438;SDS011;3252;52.540;13.290;2024-02-14T11:18:28;1230.28;;;835.38;;
6438;SDS011;3252;52.540;13.290;2024-02-14T11:20:31;1095.70;;;771.17;;
6438;SDS011;3252;52.540;13.290;2024-02-14T11:22:37;1201.90;;;823.45;;
6438;SDS011;3252;52.540;13.290;2024-02-14T11:24:39;1085.30;;;748.67;;
6438;SDS011;3252;52.540;13.290;2024-02-14T11:26:46;944.72;;;654.22;;
6438;SDS011;3252;52.540;13.290;2024-02-14T11:28:49;911.88;;;631.25;;
6438;SDS011;3252;52.540;13.290;2024-02-14T11:31:04;919.75;;;637.58;;
6438;SDS011;3252;52.540;13.290;2024-02-14T11:33:13;1006.35;;;691.47;;
6438;SDS011;3252;52.540;13.290;2024-02-14T11:35:19;870.40;;;602.92;;
6438;SDS011;3252;52.540;13.290;2024-02-14T11:37:26;730.05;;;484.20;;
6438;SDS011;3252;52.540;13.290;2024-02-14T11:39:30;641.88;;;405.33;;
6438;SDS011;3252;52.540;13.290;2024-02-14T11:41:35;542.80;;;316.38;;
6438;SDS011;3252;52.540;13.290;2024-02-14T11:43:38;417.42;;;197.20;;
6438;SDS011;3252;52.540;13.290;2024-02-14T11:45:41;282.92;;;122.80;;
6438;SDS011;3252;52.540;13.290;2024-02-14T11:47:43;189.10;;;71.72;;
6438;SDS011;3252;52.540;13.290;2024-02-14T11:49:46;120.75;;;43.55;;
6438;SDS011;3252;52.540;13.290;2024-02-14T11:51:48;62.75;;;21.05;;
6438;SDS011;3252;52.540;13.290;2024-02-14T11:53:51;66.88;;;35.42;;
6438;SDS011;3252;52.540;13.290;2024-02-14T11:55:55;244.63;;;158.48;;
6438;SDS011;3252;52.540;13.290;2024-02-14T11:57:57;250.90;;;153.77;;
6438;SDS011;3252;52.540;13.290;2024-02-14T11:59:59;192.07;;;110.88;;
6438;SDS011;3252;52.540;13.290;2024-02-14T12:02:23;107.30;;;52.10;;
6438;SDS011;3252;52.540;13.290;2024-02-14T12:04:25;60.75;;;28.58;;
6438;SDS011;3252;52.540;13.290;2024-02-14T12:06:28;35.85;;;13.82;;
6438;SDS011;3252;52.540;13.290;2024-02-14T12:08:31;14.57;;;5.18;;
6438;SDS011;3252;52.540;13.290;2024-02-14T12:10:34;8.43;;;3.22;;
6438;SDS011;3252;52.540;13.290;2024-02-14T12:12:38;4.78;;;1.70;;
6438;SDS011;3252;52.540;13.290;2024-02-14T12:14:40;6.20;;;1.65;;
6438;SDS011;3252;52.540;13.290;2024-02-14T12:16:44;4.00;;;1.55;;
6438;SDS011;3252;52.540;13.290;2024-02-14T12:18:46;2.30;;;1.50;;
6438;SDS011;3252;52.540;13.290;2024-02-14T12:20:48;2.60;;;1.33;;
6438;SDS011;3252;52.540;13.290;2024-02-14T12:22:51;2.88;;;1.30;;
6438;SDS011;3252;52.540;13.290;2024-02-14T12:24:56;3.35;;;1.60;;